createdAt,value
2022-08-02T00:00:06.145Z,9.711665
2022-08-02T00:01:06.264Z,9.711745
2022-08-02T00:02:06.210Z,9.711836
2022-08-02T00:03:06.136Z,9.711655
2022-08-02T00:04:06.117Z,9.711719
2022-08-02T00:05:06.103Z,9.711761
2022-08-02T00:06:06.102Z,9.711750
2022-08-02T00:07:06.090Z,9.711802
2022-08-02T00:08:06.097Z,9.711740
2022-08-02T00:09:06.196Z,9.711658
2022-08-02T00:10:06.069Z,9.711688
2022-08-02T00:11:06.053Z,9.711818
2022-08-02T00:12:06.049Z,9.711697
2022-08-02T00:13:06.048Z,9.711735
2022-08-02T00:14:06.040Z,9.711757
2022-08-02T00:15:06.020Z,9.711744
2022-08-02T00:16:06.022Z,9.711681
2022-08-02T00:17:07.580Z,9.711669
2022-08-02T00:18:06.009Z,9.711710
2022-08-02T00:19:05.981Z,9.711656
2022-08-02T00:20:06.980Z,9.711678
2022-08-02T00:21:05.974Z,9.711666
2022-08-02T00:22:05.967Z,9.711724
2022-08-02T00:23:05.963Z,9.711638
2022-08-02T00:24:29.982Z,9.711668
2022-08-02T00:25:06.940Z,9.711621
2022-08-02T00:26:05.930Z,9.711621
2022-08-02T00:27:09.652Z,9.711699
2022-08-02T00:28:05.925Z,9.711602
2022-08-02T00:29:05.915Z,9.711817
2022-08-02T00:30:05.905Z,9.711586
2022-08-02T00:31:05.895Z,9.711674
2022-08-02T00:34:57.860Z,9.711688
2022-08-02T00:35:56.862Z,9.711692
2022-08-02T00:36:56.846Z,9.711749
2022-08-02T00:37:56.845Z,9.711721
2022-08-02T00:38:56.855Z,9.711598
2022-08-02T00:39:56.823Z,9.711728
2022-08-02T00:40:58.256Z,9.711718
2022-08-02T00:41:57.803Z,9.711933
2022-08-02T00:42:56.804Z,9.711783
2022-08-02T00:43:56.789Z,9.711705
2022-08-02T00:44:56.784Z,9.711718
2022-08-02T00:46:02.692Z,9.711742
2022-08-02T00:46:57.759Z,9.711698
2022-08-02T00:47:57.758Z,9.711721
2022-08-02T00:48:56.780Z,9.711738
2022-08-02T00:49:56.732Z,9.711658
2022-08-02T00:50:57.743Z,9.711686
2022-08-02T00:51:56.731Z,9.711639
2022-08-02T00:52:56.719Z,9.711734
2022-08-02T00:53:56.706Z,9.711725
2022-08-02T00:54:56.695Z,9.711788
2022-08-02T00:55:56.688Z,9.711729
2022-08-02T00:56:56.681Z,9.711708
2022-08-02T00:57:56.678Z,9.711716
2022-08-02T00:58:57.656Z,9.711704
2022-08-02T00:59:56.658Z,9.711612
2022-08-02T01:00:56.651Z,9.711691
2022-08-02T01:01:58.293Z,9.711699
2022-08-02T01:02:56.633Z,9.711675
2022-08-02T01:03:56.634Z,9.711673
2022-08-02T01:04:57.149Z,9.711674
2022-08-02T01:06:10.966Z,9.711696
2022-08-02T01:06:57.593Z,9.711771
2022-08-02T01:07:57.593Z,9.711751
2022-08-02T01:08:56.595Z,9.711680
2022-08-02T01:09:56.586Z,9.711774
2022-08-02T01:10:56.573Z,9.711916
2022-08-02T01:11:56.578Z,9.711821
2022-08-02T01:12:56.558Z,9.711706
2022-08-02T01:13:56.559Z,9.711742
2022-08-02T01:14:56.547Z,9.711806
2022-08-02T01:15:56.530Z,9.711754
2022-08-02T01:16:56.524Z,9.711712
2022-08-02T01:17:56.509Z,9.711617
2022-08-02T01:18:56.519Z,9.711716
2022-08-02T01:19:56.502Z,9.711731
2022-08-02T01:20:57.234Z,9.711718
2022-08-02T01:21:56.483Z,9.711714
2022-08-02T01:23:03.767Z,9.711785
2022-08-02T01:23:58.473Z,9.711764
2022-08-02T01:24:56.462Z,9.711871
2022-08-02T01:25:56.454Z,9.711842
2022-08-02T01:26:56.442Z,9.711704
2022-08-02T01:27:56.450Z,9.711599
2022-08-02T01:28:56.428Z,9.711875
2022-08-02T01:29:56.428Z,9.711778
2022-08-02T01:30:56.408Z,9.711794
2022-08-02T01:31:56.404Z,9.711994
2022-08-02T01:32:56.403Z,9.712083
2022-08-02T01:33:56.399Z,9.711956
2022-08-02T01:34:56.378Z,9.711968
2022-08-02T01:35:57.244Z,9.711741
2022-08-02T01:36:56.364Z,9.712141
2022-08-02T01:37:56.360Z,9.712350
2022-08-02T01:38:56.353Z,9.712129
2022-08-02T01:39:56.348Z,9.711936
2022-08-02T01:40:56.339Z,9.711876
2022-08-02T01:41:58.798Z,9.712027
2022-08-02T01:42:58.165Z,9.712182
2022-08-02T01:43:56.330Z,9.712061
2022-08-02T01:44:56.324Z,9.711939
2022-08-02T01:45:56.294Z,9.711872
2022-08-02T01:46:56.292Z,9.712087
2022-08-02T01:47:56.280Z,9.712013
2022-08-02T01:48:56.311Z,9.711821
2022-08-02T01:49:56.259Z,9.711777
2022-08-02T01:50:56.253Z,9.711775
2022-08-02T01:51:56.257Z,9.711724
2022-08-02T01:52:56.236Z,9.711742
2022-08-02T01:53:56.232Z,9.711658
2022-08-02T01:54:56.225Z,9.711615
2022-08-02T01:55:57.555Z,9.711808
2022-08-02T01:56:56.207Z,9.711868
2022-08-02T01:57:56.197Z,9.711621
2022-08-02T01:58:56.190Z,9.711579
2022-08-02T01:59:56.178Z,9.711637
2022-08-02T02:00:56.243Z,9.711557
2022-08-02T02:01:56.161Z,9.711551
2022-08-02T02:02:56.156Z,9.711750
2022-08-02T02:03:56.154Z,9.711833
2022-08-02T02:04:56.151Z,9.711731
2022-08-02T02:05:56.130Z,9.711960
2022-08-02T02:06:56.126Z,9.712098
2022-08-02T02:07:56.126Z,9.712505
2022-08-02T02:08:56.119Z,9.712875
2022-08-02T02:09:56.101Z,9.712175
2022-08-02T02:10:56.106Z,9.711917
2022-08-02T02:12:06.508Z,9.711741
2022-08-02T02:12:57.082Z,9.711871
2022-08-02T02:13:56.067Z,9.712240
2022-08-02T02:14:56.058Z,9.712645
2022-08-02T02:15:56.063Z,9.712723
2022-08-02T02:16:56.039Z,9.712670
2022-08-02T02:18:13.253Z,9.712875
2022-08-02T02:18:57.028Z,9.713115
2022-08-02T02:19:56.020Z,9.712296
2022-08-02T02:20:56.018Z,9.711853
2022-08-02T02:21:56.004Z,9.711865
2022-08-02T02:22:55.997Z,9.711838
2022-08-02T02:23:56.986Z,9.711811
2022-08-02T02:24:55.988Z,9.711793
2022-08-02T02:25:56.075Z,9.711780
2022-08-02T02:26:55.978Z,9.711791
2022-08-02T02:27:55.956Z,9.711853
2022-08-02T02:28:55.946Z,9.711794
2022-08-02T02:29:55.943Z,9.711775
2022-08-02T02:30:55.938Z,9.711761
2022-08-02T02:31:55.925Z,9.711660
2022-08-02T02:32:55.916Z,9.711758
2022-08-02T02:33:55.904Z,9.711758
2022-08-02T02:34:55.898Z,9.711724
2022-08-02T02:35:55.890Z,9.711746
2022-08-02T02:36:55.874Z,9.711778
2022-08-02T02:37:55.870Z,9.711758
2022-08-02T02:38:55.863Z,9.711724
2022-08-02T02:39:55.856Z,9.711764
2022-08-02T02:40:55.847Z,9.711779
2022-08-02T02:41:55.830Z,9.711729
2022-08-02T02:42:55.826Z,9.711718
2022-08-02T02:43:55.824Z,9.711713
2022-08-02T02:44:55.813Z,9.711743
2022-08-02T02:45:55.799Z,9.711665
2022-08-02T02:46:55.797Z,9.711695
2022-08-02T02:47:57.753Z,9.711768
2022-08-02T02:48:55.816Z,9.711735
2022-08-02T02:49:55.771Z,9.711752
2022-08-02T02:50:55.769Z,9.711774
2022-08-02T02:51:55.752Z,9.711775
2022-08-02T02:52:55.748Z,9.711749
2022-08-02T02:54:29.902Z,9.711789
2022-08-02T02:54:56.733Z,9.711750
2022-08-02T02:56:02.073Z,9.711768
2022-08-02T02:56:56.706Z,9.711792
2022-08-02T02:57:55.707Z,9.711821
2022-08-02T02:58:55.700Z,9.711729
2022-08-02T02:59:55.694Z,9.711723
2022-08-02T03:00:55.688Z,9.711721
2022-08-02T03:01:58.046Z,9.711749
2022-08-02T03:02:55.656Z,9.711713
2022-08-02T03:03:55.647Z,9.711677
2022-08-02T03:04:58.113Z,9.712136
2022-08-02T03:05:55.630Z,9.711847
2022-08-02T03:06:55.629Z,9.712322
2022-08-02T03:07:55.622Z,9.713098
2022-08-02T03:08:55.604Z,9.713529
2022-08-02T03:09:55.614Z,9.713453
2022-08-02T03:10:55.598Z,9.713275
2022-08-02T03:11:55.587Z,9.713856
2022-08-02T03:12:55.575Z,9.714115
2022-08-02T03:13:55.568Z,9.713699
2022-08-02T03:14:55.571Z,9.713363
2022-08-02T03:15:55.547Z,9.713507
2022-08-02T03:16:56.551Z,9.713340
2022-08-02T03:17:55.540Z,9.713116
2022-08-02T03:18:55.529Z,9.712542
2022-08-02T03:19:55.521Z,9.712315
2022-08-02T03:20:55.515Z,9.712189
2022-08-02T03:21:57.518Z,9.711979
2022-08-02T03:22:55.517Z,9.711837
2022-08-02T03:23:55.488Z,9.711713
2022-08-02T03:24:55.485Z,9.711681
2022-08-02T03:25:55.475Z,9.711664
2022-08-02T03:26:55.489Z,9.711416
2022-08-02T03:27:55.469Z,9.711470
2022-08-02T03:28:55.451Z,9.711637
2022-08-02T03:29:55.440Z,9.711772
2022-08-02T03:30:55.437Z,9.711800
2022-08-02T03:31:55.428Z,9.711703
2022-08-02T03:32:55.422Z,9.711531
2022-08-02T03:33:55.409Z,9.711494
2022-08-02T03:34:55.407Z,9.711576
2022-08-02T03:35:55.393Z,9.711664
2022-08-02T03:36:55.386Z,9.711598
2022-08-02T03:37:55.382Z,9.711698
2022-08-02T03:38:55.376Z,9.711711
2022-08-02T03:39:55.363Z,9.711718
2022-08-02T03:40:55.355Z,9.711843
2022-08-02T03:41:55.346Z,9.711937
2022-08-02T03:42:55.350Z,9.711901
2022-08-02T03:43:55.326Z,9.711840
2022-08-02T03:44:55.327Z,9.711834
2022-08-02T03:45:56.202Z,9.711976
2022-08-02T03:46:55.320Z,9.711824
2022-08-02T03:47:58.771Z,9.711825
2022-08-02T03:48:55.327Z,9.711829
2022-08-02T03:49:55.279Z,9.711754
2022-08-02T03:50:55.278Z,9.711678
2022-08-02T03:51:55.270Z,9.711432
2022-08-02T03:52:55.259Z,9.711564
2022-08-02T03:53:55.251Z,9.711668
2022-08-02T03:54:55.242Z,9.711581
2022-08-02T03:55:56.041Z,9.711666
2022-08-02T03:56:56.229Z,9.711691
2022-08-02T03:57:55.227Z,9.711637
2022-08-02T03:58:55.215Z,9.711513
2022-08-02T03:59:55.199Z,9.711339
2022-08-02T04:00:55.242Z,9.711398
2022-08-02T04:01:55.189Z,9.711378
2022-08-02T04:02:55.190Z,9.711653
2022-08-02T04:03:55.171Z,9.711383
2022-08-02T04:04:55.159Z,9.711121
2022-08-02T04:06:03.973Z,9.711406
2022-08-02T04:06:56.138Z,9.711146
2022-08-02T04:08:34.975Z,9.711149
2022-08-02T04:08:56.724Z,9.710969
2022-08-02T04:09:55.123Z,9.711370
2022-08-02T04:10:55.105Z,9.711275
2022-08-02T04:11:55.105Z,9.711398
2022-08-02T04:12:55.092Z,9.711576
2022-08-02T04:13:56.961Z,9.711633
2022-08-02T04:14:55.129Z,9.711642
2022-08-02T04:15:55.076Z,9.711627
2022-08-02T04:16:55.058Z,9.711630
2022-08-02T04:17:55.061Z,9.711635
2022-08-02T04:18:55.043Z,9.711663
2022-08-02T04:19:55.049Z,9.711664
2022-08-02T04:20:55.031Z,9.711644
2022-08-02T04:21:55.024Z,9.711643
2022-08-02T04:22:55.017Z,9.711643
2022-08-02T04:23:55.005Z,9.711637
2022-08-02T04:24:55.033Z,9.711608
2022-08-02T04:25:55.004Z,9.711622
2022-08-02T04:26:54.995Z,9.711633
2022-08-02T04:28:16.015Z,9.711591
2022-08-02T04:28:55.970Z,9.711619
2022-08-02T04:29:54.964Z,9.711595
2022-08-02T04:30:54.961Z,9.711574
2022-08-02T04:31:54.948Z,9.711529
2022-08-02T04:32:54.940Z,9.711662
2022-08-02T04:33:54.945Z,9.711647
2022-08-02T04:35:18.059Z,9.711612
2022-08-02T04:35:59.717Z,9.711584
2022-08-02T04:36:55.907Z,9.711608
2022-08-02T04:38:05.829Z,9.711589
2022-08-02T04:38:55.902Z,9.711633
2022-08-02T04:39:54.885Z,9.711675
2022-08-02T04:40:54.876Z,9.711668
2022-08-02T04:41:57.715Z,9.711641
2022-08-02T04:42:55.863Z,9.711629
2022-08-02T04:43:54.855Z,9.711618
2022-08-02T04:44:54.854Z,9.711608
2022-08-02T04:45:54.840Z,9.711655
2022-08-02T04:46:54.843Z,9.711623
2022-08-02T04:48:04.522Z,9.711635
2022-08-02T04:48:55.860Z,9.711617
2022-08-02T04:49:54.808Z,9.711640
2022-08-02T04:50:54.796Z,9.711612
2022-08-02T04:51:54.792Z,9.711659
2022-08-02T04:52:54.786Z,9.711622
2022-08-02T04:53:54.775Z,9.711661
2022-08-02T04:54:55.762Z,9.711647
2022-08-02T04:55:54.761Z,9.711616
2022-08-02T04:56:54.769Z,9.711633
2022-08-02T04:57:54.747Z,9.711622
2022-08-02T04:58:54.748Z,9.711632
2022-08-02T04:59:54.800Z,9.711703
2022-08-02T05:00:54.741Z,9.711626
2022-08-02T05:01:54.710Z,9.711643
2022-08-02T05:02:54.710Z,9.711637
2022-08-02T05:03:54.695Z,9.711616
2022-08-02T05:04:54.688Z,9.711452
2022-08-02T05:05:54.675Z,9.711553
2022-08-02T05:06:54.673Z,9.711634
2022-08-02T05:07:54.671Z,9.711569
2022-08-02T05:08:54.689Z,9.711540
2022-08-02T05:09:54.664Z,9.711561
2022-08-02T05:10:54.634Z,9.711641
2022-08-02T05:11:55.241Z,9.711558
2022-08-02T05:12:54.626Z,9.711528
2022-08-02T05:13:58.052Z,9.711622
2022-08-02T05:14:54.603Z,9.711672
2022-08-02T05:15:54.593Z,9.711616
2022-08-02T05:16:54.586Z,9.711555
2022-08-02T05:17:54.582Z,9.711614
2022-08-02T05:18:55.291Z,9.711607
2022-08-02T05:19:54.561Z,9.711634
2022-08-02T05:20:58.118Z,9.711626
2022-08-02T05:21:55.605Z,9.711656
2022-08-02T05:22:54.824Z,9.711644
2022-08-02T05:23:54.533Z,9.711704
2022-08-02T05:24:55.232Z,9.711663
2022-08-02T05:25:54.519Z,9.711750
2022-08-02T05:26:54.511Z,9.711817
2022-08-02T05:45:01.445Z,9.711389
2022-08-02T05:46:02.531Z,9.711262
2022-08-02T05:47:01.459Z,9.711671
2022-08-02T05:48:01.476Z,9.711710
2022-08-02T05:49:01.477Z,9.711657
2022-08-02T05:50:01.423Z,9.711660
2022-08-02T05:51:01.408Z,9.711838
2022-08-02T05:52:01.406Z,9.711886
2022-08-02T05:53:01.390Z,9.711914
2022-08-02T05:54:01.386Z,9.711929
2022-08-02T05:55:01.380Z,9.712110
2022-08-02T05:56:05.362Z,9.712060
2022-08-02T05:57:02.371Z,9.712274
2022-08-02T05:58:01.370Z,9.712152
2022-08-02T05:59:01.364Z,9.712225
2022-08-02T06:00:02.789Z,9.712268
2022-08-02T06:01:01.343Z,9.712066
2022-08-02T06:02:01.391Z,9.712178
2022-08-02T06:03:01.329Z,9.711967
2022-08-02T06:04:01.305Z,9.711689
2022-08-02T06:05:01.315Z,9.711687
2022-08-02T06:06:01.297Z,9.711609
2022-08-02T06:07:02.258Z,9.711563
2022-08-02T06:08:01.296Z,9.711683
2022-08-02T06:09:01.267Z,9.711678
2022-08-02T06:10:01.252Z,9.711796
2022-08-02T06:11:01.251Z,9.711626
2022-08-02T06:12:02.506Z,9.711985
2022-08-02T06:13:01.259Z,9.711909
2022-08-02T06:14:01.740Z,9.712198
2022-08-02T06:15:01.210Z,9.712388
2022-08-02T06:16:01.212Z,9.712300
2022-08-02T06:17:01.192Z,9.712782
2022-08-02T06:18:01.202Z,9.712649
2022-08-02T06:19:01.192Z,9.712202
2022-08-02T06:20:01.204Z,9.711967
2022-08-02T06:21:03.806Z,9.712001
2022-08-02T06:22:32.270Z,9.712036
2022-08-02T06:23:02.183Z,9.712064
2022-08-02T06:24:01.138Z,9.711832
2022-08-02T06:25:01.127Z,9.711699
2022-08-02T06:26:01.125Z,9.711718
2022-08-02T06:27:01.687Z,9.711510
2022-08-02T06:28:01.127Z,9.711367
2022-08-02T06:29:01.128Z,9.711600
2022-08-02T06:30:01.098Z,9.712033
2022-08-02T06:31:01.675Z,9.711354
2022-08-02T06:32:01.076Z,9.711630
2022-08-02T06:33:03.084Z,9.711647
2022-08-02T06:34:01.113Z,9.711714
2022-08-02T06:35:01.063Z,9.711632
2022-08-02T06:36:01.101Z,9.711616
2022-08-02T06:37:01.023Z,9.711540
2022-08-02T06:38:01.038Z,9.711640
2022-08-02T06:39:01.016Z,9.711587
2022-08-02T06:40:01.690Z,9.711626
2022-08-02T06:41:00.991Z,9.711589
2022-08-02T06:42:00.987Z,9.711535
2022-08-02T06:43:00.983Z,9.711423
2022-08-02T06:44:19.613Z,9.711506
2022-08-02T06:45:02.948Z,9.711233
2022-08-02T06:47:07.431Z,9.711217
2022-08-02T06:47:11.891Z,9.711292
2022-08-02T06:48:01.939Z,9.711480
2022-08-02T06:49:01.086Z,9.711535
2022-08-02T06:50:01.028Z,9.711522
2022-08-02T06:51:00.976Z,9.711495
2022-08-02T06:52:00.904Z,9.711406
2022-08-02T06:53:00.929Z,9.711615
2022-08-02T06:54:00.905Z,9.711600
2022-08-02T06:55:00.939Z,9.711512
2022-08-02T06:56:00.896Z,9.711280
2022-08-02T06:57:00.872Z,9.711278
2022-08-02T06:58:00.880Z,9.711311
2022-08-02T06:59:05.562Z,9.711440
2022-08-02T07:00:02.849Z,9.711432
2022-08-02T07:01:00.846Z,9.711424
2022-08-02T07:02:00.867Z,9.711386
2022-08-02T07:03:00.832Z,9.711381
2022-08-02T07:04:00.808Z,9.711437
2022-08-02T07:05:00.816Z,9.711527
2022-08-02T07:06:00.793Z,9.711523
2022-08-02T07:07:00.779Z,9.711611
2022-08-02T07:08:01.803Z,9.711425
2022-08-02T07:09:20.152Z,9.711296
2022-08-02T07:10:02.765Z,9.711710
2022-08-02T07:11:00.759Z,9.711905
2022-08-02T07:12:00.779Z,9.712125
2022-08-02T07:13:00.739Z,9.711725
2022-08-02T07:14:00.750Z,9.711714
2022-08-02T07:15:00.738Z,9.711670
2022-08-02T07:16:00.719Z,9.711626
2022-08-02T07:17:00.721Z,9.711448
2022-08-02T07:18:00.710Z,9.711423
2022-08-02T07:19:00.700Z,9.711388
2022-08-02T07:20:00.686Z,9.711595
2022-08-02T07:21:00.681Z,9.711552
2022-08-02T07:22:01.855Z,9.711578
2022-08-02T07:23:00.696Z,9.711652
2022-08-02T07:24:00.664Z,9.711576
2022-08-02T07:25:00.656Z,9.711471
2022-08-02T07:26:02.605Z,9.711496
2022-08-02T07:27:11.091Z,9.711547
2022-08-02T07:28:02.642Z,9.711562
2022-08-02T07:29:00.625Z,9.711550
2022-08-02T07:30:00.621Z,9.711525
2022-08-02T07:31:00.617Z,9.711578
2022-08-02T07:32:00.593Z,9.711549
2022-08-02T07:33:00.595Z,9.711622
2022-08-02T07:34:00.590Z,9.711563
2022-08-02T07:35:06.684Z,9.711573
2022-08-02T07:36:01.633Z,9.711520
2022-08-02T07:37:00.590Z,9.711539
2022-08-02T07:38:02.106Z,9.711551
2022-08-02T07:39:00.539Z,9.711535
2022-08-02T07:40:00.542Z,9.711586
2022-08-02T07:41:00.532Z,9.711558
2022-08-02T07:42:00.536Z,9.711598
2022-08-02T07:43:03.806Z,9.711574
2022-08-02T07:44:01.504Z,9.711549
2022-08-02T07:45:00.497Z,9.711615
2022-08-02T07:46:01.003Z,9.711684
2022-08-02T07:47:00.488Z,9.711679
2022-08-02T07:48:00.489Z,9.711596
2022-08-02T07:49:00.556Z,9.711703
2022-08-02T07:50:00.481Z,9.711794
2022-08-02T07:51:01.203Z,9.711749
2022-08-02T07:52:00.454Z,9.711679
2022-08-02T07:53:00.451Z,9.711755
2022-08-02T07:54:02.747Z,9.711740
2022-08-02T08:00:07.782Z,9.711587
2022-08-02T08:01:07.843Z,9.711622
2022-08-02T08:02:09.167Z,9.711603
2022-08-02T08:03:08.668Z,9.711669
2022-08-02T08:04:07.785Z,9.711615
2022-08-02T08:05:07.746Z,9.711542
2022-08-02T08:06:07.744Z,9.711575
2022-08-02T08:07:07.764Z,9.711737
2022-08-02T08:08:07.726Z,9.711783
2022-08-02T08:09:07.714Z,9.711746
2022-08-02T08:10:07.720Z,9.711639
2022-08-02T08:11:07.693Z,9.711639
2022-08-02T08:12:07.692Z,9.711639
2022-08-02T08:13:07.681Z,9.711639
2022-08-02T08:14:07.667Z,9.711639
2022-08-02T08:15:07.665Z,9.711639
2022-08-02T08:16:07.694Z,9.711639
2022-08-02T08:17:07.645Z,9.711639
2022-08-02T08:18:07.681Z,9.711954
2022-08-02T08:19:07.650Z,9.711948
2022-08-02T08:20:07.642Z,9.711714
2022-08-02T08:21:07.615Z,9.711717
2022-08-02T08:22:08.682Z,9.711717
2022-08-02T08:23:07.605Z,9.711717
2022-08-02T08:24:07.607Z,9.711717
2022-08-02T08:25:07.584Z,9.711717
2022-08-02T08:26:07.573Z,9.711717
2022-08-02T08:27:07.556Z,9.711717
2022-08-02T08:28:08.576Z,9.711717
2022-08-02T08:29:07.551Z,9.711717
2022-08-02T08:30:07.548Z,9.711717
2022-08-02T08:31:07.539Z,9.711717
2022-08-02T08:32:07.529Z,9.711717
2022-08-02T08:33:07.533Z,9.711717
2022-08-02T08:34:07.510Z,9.711717
2022-08-02T08:35:07.513Z,9.711717
2022-08-02T08:36:08.090Z,9.711717
2022-08-02T08:37:07.498Z,9.711717
2022-08-02T08:38:08.065Z,9.711717
2022-08-02T08:39:09.469Z,9.711717
2022-08-02T08:40:07.463Z,9.711717
2022-08-02T08:41:08.294Z,9.711717
2022-08-02T08:42:07.479Z,9.711717
2022-08-02T08:43:07.450Z,9.711717
2022-08-02T08:44:07.429Z,9.711717
2022-08-02T08:45:07.423Z,9.711535
2022-08-02T08:46:07.440Z,9.711517
2022-08-02T08:47:07.451Z,9.711514
2022-08-02T08:48:07.404Z,9.711580
2022-08-02T08:49:07.398Z,9.711605
2022-08-02T08:50:08.289Z,9.711519
2022-08-02T08:51:07.388Z,9.711644
2022-08-02T08:52:07.366Z,9.711498
2022-08-02T08:53:07.371Z,9.711661
2022-08-02T08:54:07.375Z,9.711689
2022-08-02T08:55:07.354Z,9.711612
2022-08-02T08:56:07.379Z,9.711561
2022-08-02T08:57:07.337Z,9.711624
2022-08-02T08:58:07.321Z,9.711607
2022-08-02T08:59:07.327Z,9.711608
2022-08-02T09:00:07.336Z,9.711632
2022-08-02T09:01:07.404Z,9.711680
2022-08-02T09:02:16.557Z,9.711663
2022-08-02T09:03:08.286Z,9.711643
2022-08-02T09:04:07.292Z,9.711651
2022-08-02T09:05:07.260Z,9.711660
2022-08-02T09:06:07.296Z,9.711663
2022-08-02T09:07:07.253Z,9.711680
2022-08-02T09:08:07.247Z,9.711663
2022-08-02T09:09:07.229Z,9.711635
2022-08-02T09:10:07.230Z,9.711615
2022-08-02T09:11:07.211Z,9.711642
2022-08-02T09:12:07.220Z,9.711666
2022-08-02T09:13:32.375Z,9.711654
2022-08-02T09:14:08.185Z,9.711670
2022-08-02T09:15:07.178Z,9.711605
2022-08-02T09:16:12.272Z,9.711602
2022-08-02T09:17:08.684Z,9.711615
2022-08-02T09:18:07.161Z,9.711660
2022-08-02T09:19:07.964Z,9.711665
2022-08-02T09:20:07.140Z,9.711798
2022-08-02T09:21:07.130Z,9.711714
2022-08-02T09:22:07.124Z,9.711699
2022-08-02T09:23:07.118Z,9.711705
2022-08-02T09:24:07.143Z,9.711784
2022-08-02T09:25:07.140Z,9.711722
2022-08-02T09:26:07.933Z,9.711697
2022-08-02T09:27:07.108Z,9.711534
2022-08-02T09:28:07.093Z,9.711877
2022-08-02T09:29:07.073Z,9.711984
2022-08-02T09:30:13.321Z,9.711984
2022-08-02T09:31:08.057Z,9.711984
2022-08-02T09:32:07.051Z,9.711984
2022-08-02T09:33:07.042Z,9.711984
2022-08-02T09:34:07.046Z,9.711984
2022-08-02T09:35:07.692Z,9.711984
2022-08-02T09:36:08.348Z,9.711984
2022-08-02T09:37:08.659Z,9.711984
2022-08-02T09:38:07.011Z,9.711984
2022-08-02T09:39:07.029Z,9.711984
2022-08-02T09:40:06.986Z,9.711984
2022-08-02T09:41:06.984Z,9.711984
2022-08-02T09:42:06.977Z,9.711984
2022-08-02T09:43:06.968Z,9.711984
2022-08-02T09:44:07.267Z,9.711984
2022-08-02T09:45:06.947Z,9.711984
2022-08-02T09:46:06.940Z,9.711984
2022-08-02T09:47:06.948Z,9.711984
2022-08-02T09:48:06.931Z,9.711743
2022-08-02T09:49:06.994Z,9.711680
2022-08-02T09:50:07.830Z,9.711590
2022-08-02T09:51:08.713Z,9.711637
2022-08-02T09:52:06.912Z,9.711718
2022-08-02T09:53:06.906Z,9.711607
2022-08-02T09:54:08.842Z,9.711681
2022-08-02T09:55:07.872Z,9.711669
2022-08-02T10:00:20.420Z,9.711680
2022-08-02T10:01:15.233Z,9.711637
2022-08-02T10:02:14.640Z,9.711611
2022-08-02T10:03:14.340Z,9.711692
2022-08-02T10:04:21.242Z,9.711717
2022-08-02T10:05:16.620Z,9.711658
2022-08-02T10:06:14.191Z,9.711620
2022-08-02T10:07:14.203Z,9.711698
2022-08-02T10:08:14.176Z,9.711722
2022-08-02T10:09:14.164Z,9.711687
2022-08-02T10:10:14.226Z,9.711704
2022-08-02T10:11:14.143Z,9.711583
2022-08-02T10:12:14.529Z,9.711667
2022-08-02T10:13:47.040Z,9.711601
2022-08-02T10:14:14.114Z,9.711517
2022-08-02T10:15:14.116Z,9.711614
2022-08-02T10:16:14.105Z,9.711632
2022-08-02T10:17:14.092Z,9.711652
2022-08-02T10:18:36.950Z,9.711697
2022-08-02T10:19:16.088Z,9.711770
2022-08-02T10:20:14.121Z,9.711475
2022-08-02T10:21:14.061Z,9.711501
2022-08-02T10:22:14.619Z,9.711443
2022-08-02T10:23:14.052Z,9.711541
2022-08-02T10:24:14.544Z,9.711523
2022-08-02T10:25:14.030Z,9.711642
2022-08-02T10:26:14.032Z,9.711605
2022-08-02T10:27:14.017Z,9.711658
2022-08-02T10:28:16.588Z,9.711740
2022-08-02T10:29:15.003Z,9.711679
2022-08-02T10:30:13.990Z,9.711698
2022-08-02T10:31:13.979Z,9.711688
2022-08-02T10:32:14.426Z,9.711647
2022-08-02T10:33:13.966Z,9.711636
2022-08-02T10:34:13.960Z,9.711650
2022-08-02T10:35:20.073Z,9.711691
2022-08-02T10:36:14.936Z,9.711670
2022-08-02T10:37:15.109Z,9.711641
2022-08-02T10:38:13.939Z,9.711641
2022-08-02T10:39:13.927Z,9.711568
2022-08-02T10:40:14.015Z,9.711641
2022-08-02T10:41:13.909Z,9.711587
2022-08-02T10:42:14.353Z,9.711607
2022-08-02T10:43:47.084Z,9.711576
2022-08-02T10:44:24.885Z,9.711567
2022-08-02T10:45:14.886Z,9.711584
2022-08-02T10:46:13.866Z,9.711564
2022-08-02T10:47:15.111Z,9.711555
2022-08-02T10:48:13.856Z,9.711568
2022-08-02T10:50:15.879Z,9.711463
2022-08-02T10:51:13.845Z,9.711530
2022-08-02T10:52:14.212Z,9.711581
2022-08-02T10:53:13.837Z,9.711629
2022-08-02T10:54:14.071Z,9.711639
2022-08-02T10:55:14.904Z,9.711638
2022-08-02T10:56:14.787Z,9.711573
2022-08-02T10:57:15.336Z,9.711624
2022-08-02T10:58:14.777Z,9.711570
2022-08-02T10:59:13.753Z,9.711515
2022-08-02T11:00:17.269Z,9.711589
2022-08-02T11:01:14.810Z,9.711593
2022-08-02T11:02:14.070Z,9.711545
2022-08-02T11:03:13.737Z,9.711493
2022-08-02T11:04:14.587Z,9.711733
2022-08-02T11:05:13.721Z,9.711837
2022-08-02T11:06:25.957Z,9.711698
2022-08-02T11:07:14.691Z,9.711710
2022-08-02T11:08:13.717Z,9.711715
2022-08-02T11:09:13.680Z,9.711708
2022-08-02T11:10:13.678Z,9.711729
2022-08-02T11:11:13.671Z,9.711755
2022-08-02T11:12:14.009Z,9.711694
2022-08-02T11:13:13.648Z,9.711637
2022-08-02T11:14:13.649Z,9.711661
2022-08-02T11:15:13.634Z,9.711654
2022-08-02T11:16:14.598Z,9.711675
2022-08-02T11:17:13.650Z,9.711605
2022-08-02T11:18:13.613Z,9.711721
2022-08-02T11:19:13.614Z,9.711667
2022-08-02T11:20:13.611Z,9.711681
2022-08-02T11:21:14.107Z,9.711622
2022-08-02T11:22:14.099Z,9.711709
2022-08-02T11:23:13.562Z,9.711794
2022-08-02T11:24:13.569Z,9.711721
2022-08-02T11:25:14.099Z,9.711819
2022-08-02T11:26:13.544Z,9.711848
2022-08-02T11:27:13.576Z,9.711926
2022-08-02T11:28:13.543Z,9.711824
2022-08-02T11:29:15.906Z,9.711901
2022-08-02T11:30:13.530Z,9.711851
2022-08-02T11:31:13.530Z,9.711777
2022-08-02T11:32:13.948Z,9.712055
2022-08-02T11:33:13.516Z,9.711927
2022-08-02T11:34:28.459Z,9.711943
2022-08-02T11:35:14.472Z,9.711944
2022-08-02T11:36:13.489Z,9.711997
2022-08-02T11:37:13.484Z,9.711855
2022-08-02T11:38:13.479Z,9.711886
2022-08-02T11:39:13.683Z,9.711855
2022-08-02T11:40:19.866Z,9.711873
2022-08-02T11:41:14.439Z,9.711926
2022-08-02T11:42:14.774Z,9.711721
2022-08-02T11:43:13.401Z,9.711782
2022-08-02T11:44:13.396Z,9.711734
2022-08-02T11:45:20.971Z,9.711727
2022-08-02T11:46:14.401Z,9.711634
2022-08-02T11:47:13.375Z,9.711785
2022-08-02T11:48:13.400Z,9.711681
2022-08-02T11:49:13.457Z,9.711727
2022-08-02T11:50:13.370Z,9.711678
2022-08-02T11:51:13.349Z,9.711709
2022-08-02T11:52:13.628Z,9.711747
2022-08-02T11:53:13.347Z,9.711612
2022-08-02T11:54:13.330Z,9.711637
2022-08-02T11:55:13.312Z,9.711647
2022-08-02T11:56:14.115Z,9.711683
2022-08-02T11:57:18.976Z,9.711758
2022-08-02T11:58:15.297Z,9.711770
2022-08-02T11:59:14.627Z,9.711742
2022-08-02T12:00:13.295Z,9.711740
2022-08-02T12:01:13.275Z,9.711681
2022-08-02T12:02:13.667Z,9.711911
2022-08-02T12:03:16.551Z,9.711817
2022-08-02T12:04:14.239Z,9.711864
2022-08-02T12:05:13.233Z,9.711841
2022-08-02T12:06:16.552Z,9.711605
2022-08-02T12:07:13.233Z,9.711580
2022-08-02T12:08:13.224Z,9.711614
2022-08-02T12:09:17.955Z,9.711695
2022-08-02T12:10:18.777Z,9.711753
2022-08-02T12:11:14.194Z,9.711632
2022-08-02T12:12:13.528Z,9.711798
2022-08-02T12:13:13.184Z,9.711909
2022-08-02T12:14:13.167Z,9.711887